Time;durP1;ratioP1;P1;durP2;ratioP2;P2;SDS_P1;SDS_P2;PMS_P1;PMS_P2;Temp;Humidity;BMP_temperature;BMP_pressure;BME280_temperature;BME280_humidity;BME280_pressure;Samples;Min_cycle;Max_cycle;Signal;HPM_P1;HPM_P2
2023/10/02 00:01:23;;;;;;;11.88;7.88;;;16.70;99.90;;;;;;5067828;28;20390;-71
2023/10/02 00:04:16;;;;;;;12.38;8.63;;;16.70;99.90;;;;;;5067759;28;20210;-71
2023/10/02 00:06:38;;;;;;;11.77;7.95;;;16.60;99.90;;;;;;5067553;28;20287;-72
2023/10/02 00:09:05;;;;;;;10.05;7.78;;;16.60;99.90;;;;;;5066740;28;20279;-71
2023/10/02 00:11:44;;;;;;;11.25;8.30;;;16.60;99.90;;;;;;5067871;28;20194;-72
2023/10/02 00:14:20;;;;;;;10.73;7.70;;;16.60;99.90;;;;;;5064803;28;20208;-73
2023/10/02 00:16:59;;;;;;;12.10;8.65;;;16.50;99.90;;;;;;5068650;28;20859;-72
2023/10/02 00:19:35;;;;;;;10.80;8.18;;;16.50;99.90;;;;;;5065276;28;20317;-73
2023/10/02 00:22:06;;;;;;;12.75;8.07;;;16.50;99.90;;;;;;5069991;28;20190;-72
2023/10/02 00:24:35;;;;;;;10.20;7.78;;;16.50;99.90;;;;;;5069188;28;20199;-72
2023/10/02 00:27:03;;;;;;;10.40;7.68;;;16.40;99.90;;;;;;5070865;28;20263;-72
2023/10/02 00:29:30;;;;;;;12.00;8.32;;;16.40;99.90;;;;;;5066853;28;20267;-72
2023/10/02 00:31:58;;;;;;;12.13;8.70;;;16.40;99.90;;;;;;5067178;28;20202;-72
2023/10/02 00:34:31;;;;;;;11.68;8.38;;;16.40;99.90;;;;;;5095541;28;20758;-74
2023/10/02 00:37:06;;;;;;;13.27;9.15;;;16.40;99.90;;;;;;5070158;28;20202;-73
2023/10/02 00:39:35;;;;;;;12.43;9.07;;;16.40;99.90;;;;;;5066936;28;20911;-71
2023/10/02 00:42:24;;;;;;;12.07;8.82;;;16.40;99.90;;;;;;5065603;28;20205;-73
2023/10/02 00:44:58;;;;;;;12.43;8.70;;;16.40;99.90;;;;;;5068475;28;20230;-72
2023/10/02 00:47:38;;;;;;;12.77;8.60;;;16.30;99.90;;;;;;5072111;28;20247;-73
2023/10/02 00:50:10;;;;;;;15.07;8.77;;;16.30;99.90;;;;;;5065901;28;20202;-72
2023/10/02 00:52:41;;;;;;;12.27;8.35;;;16.30;99.90;;;;;;5068640;28;20206;-72
2023/10/02 00:55:14;;;;;;;11.63;8.73;;;16.20;99.90;;;;;;5070826;28;20301;-72
2023/10/02 00:57:42;;;;;;;14.60;9.63;;;16.20;99.90;;;;;;5065380;28;20704;-72
2023/10/02 01:00:19;;;;;;;11.27;8.63;;;16.20;99.90;;;;;;5072044;28;20201;-73
2023/10/02 01:02:47;;;;;;;13.63;8.60;;;16.20;99.90;;;;;;5064667;28;20202;-72
2023/10/02 01:05:21;;;;;;;13.90;8.80;;;16.10;99.90;;;;;;5072189;28;20226;-73
2023/10/02 01:07:54;;;;;;;12.05;8.82;;;16.10;99.90;;;;;;5069189;28;20230;-72
2023/10/02 01:10:23;;;;;;;12.23;8.48;;;16.00;99.90;;;;;;5070449;28;20208;-72
2023/10/02 01:12:57;;;;;;;12.27;8.90;;;16.00;99.90;;;;;;5067583;28;20202;-71
2023/10/02 01:15:26;;;;;;;12.25;8.43;;;16.00;99.90;;;;;;5061118;28;20683;-74
2023/10/02 01:17:54;;;;;;;14.00;9.57;;;16.00;99.90;;;;;;5066474;28;20225;-72
2023/10/02 01:20:32;;;;;;;14.02;8.90;;;15.90;99.90;;;;;;5064663;28;20263;-72
2023/10/02 01:23:11;;;;;;;14.02;9.27;;;15.90;99.90;;;;;;5069497;28;20202;-72
2023/10/02 01:25:42;;;;;;;13.23;9.07;;;15.90;99.90;;;;;;5071212;28;20221;-72
2023/10/02 01:28:13;;;;;;;15.23;9.45;;;16.00;99.90;;;;;;5062096;28;20221;-71
2023/10/02 01:30:42;;;;;;;12.18;9.45;;;15.90;99.90;;;;;;5066713;28;20198;-72
2023/10/02 01:33:14;;;;;;;13.43;9.35;;;15.90;99.90;;;;;;5070438;28;20691;-74
2023/10/02 01:35:48;;;;;;;12.57;8.40;;;15.90;99.90;;;;;;5064685;28;20194;-72
2023/10/02 01:38:18;;;;;;;13.93;9.73;;;15.90;99.90;;;;;;5069819;28;20217;-72
2023/10/02 01:40:53;;;;;;;14.85;9.55;;;15.90;99.90;;;;;;5067353;28;20244;-72
2023/10/02 01:43:27;;;;;;;13.45;9.10;;;15.90;99.90;;;;;;5066215;28;20212;-72
2023/10/02 01:45:56;;;;;;;13.60;9.05;;;15.90;99.90;;;;;;5062700;28;20214;-72
2023/10/02 01:48:48;;;;;;;13.10;8.98;;;15.80;99.90;;;;;;5065508;28;20592;-73
2023/10/02 01:51:15;;;;;;;13.35;9.15;;;15.80;99.90;;;;;;5064804;28;20202;-72
2023/10/02 01:53:43;;;;;;;12.27;9.15;;;15.80;99.90;;;;;;5061828;28;20194;-72
2023/10/02 01:56:15;;;;;;;15.38;9.77;;;15.80;99.90;;;;;;5066139;28;20283;-72
2023/10/02 01:58:42;;;;;;;14.13;10.07;;;15.80;99.90;;;;;;5066456;28;20711;-71
2023/10/02 02:01:10;;;;;;;14.60;9.23;;;15.80;99.90;;;;;;5071393;28;20201;-72
2023/10/02 02:03:38;;;;;;;17.52;11.00;;;15.80;99.90;;;;;;5066674;28;20198;-72
2023/10/02 02:06:09;;;;;;;15.73;10.18;;;15.80;99.90;;;;;;5082134;28;20244;-73
2023/10/02 02:08:37;;;;;;;14.77;9.93;;;15.70;99.90;;;;;;5084673;28;20224;-72
2023/10/02 02:11:18;;;;;;;15.88;9.95;;;15.70;99.90;;;;;;5090429;28;20186;-73
2023/10/02 02:13:48;;;;;;;15.13;10.55;;;15.70;99.90;;;;;;5065486;28;20206;-72
2023/10/02 02:16:16;;;;;;;12.73;9.18;;;15.60;99.90;;;;;;5065914;28;20207;-72
2023/10/02 02:18:45;;;;;;;13.85;9.75;;;15.60;99.90;;;;;;5063679;28;20226;-72
2023/10/02 02:21:16;;;;;;;15.98;9.93;;;15.50;99.90;;;;;;5059123;28;20657;-73
2023/10/02 02:23:45;;;;;;;15.93;9.63;;;15.60;99.90;;;;;;5063908;28;20205;-73
2023/10/02 02:26:20;;;;;;;14.25;9.73;;;15.50;99.90;;;;;;5064698;28;20766;-72
2023/10/02 02:28:51;;;;;;;15.63;10.20;;;15.50;99.90;;;;;;5061399;28;20263;-72
2023/10/02 02:31:31;;;;;;;15.45;9.85;;;15.60;99.90;;;;;;5067850;28;20201;-71
2023/10/02 02:34:03;;;;;;;16.08;10.30;;;15.50;99.90;;;;;;5074497;28;20175;-74
2023/10/02 02:36:34;;;;;;;14.43;9.90;;;15.50;99.90;;;;;;5082683;28;20243;-72
2023/10/02 02:39:15;;;;;;;15.98;9.93;;;15.50;99.90;;;;;;5065286;28;20585;-74
2023/10/02 02:41:47;;;;;;;15.93;10.75;;;15.50;99.90;;;;;;5068481;28;20213;-74
2023/10/02 02:47:07;;;;;;;17.55;10.98;;;15.50;99.90;;;;;;5072064;28;20225;-72
2023/10/02 02:49:48;;;;;;;15.82;10.57;;;15.50;99.90;;;;;;5066460;28;20284;-73
2023/10/02 02:52:16;;;;;;;15.30;10.32;;;15.40;99.90;;;;;;5064163;28;20752;-72
2023/10/02 02:54:47;;;;;;;14.48;10.00;;;15.40;99.90;;;;;;5067316;28;20202;-71
2023/10/02 02:57:15;;;;;;;17.92;11.63;;;15.40;99.90;;;;;;5061261;28;20221;-71
2023/10/02 02:59:45;;;;;;;16.63;10.90;;;15.40;99.90;;;;;;5062933;28;20233;-71
2023/10/02 03:02:21;;;;;;;14.85;10.00;;;15.30;99.90;;;;;;5064478;28;20237;-72
2023/10/02 03:04:50;;;;;;;18.90;11.27;;;15.30;99.90;;;;;;5065754;28;20216;-72
2023/10/02 03:07:29;;;;;;;16.23;11.15;;;15.30;99.90;;;;;;5062311;28;20747;-71
2023/10/02 03:09:59;;;;;;;16.35;11.02;;;15.20;99.90;;;;;;5069110;28;20270;-71
2023/10/02 03:12:27;;;;;;;17.20;10.90;;;15.20;99.90;;;;;;5068186;28;20241;-73
2023/10/02 03:14:56;;;;;;;13.77;9.88;;;15.20;99.90;;;;;;5067034;28;20276;-72
2023/10/02 03:17:36;;;;;;;14.50;10.05;;;15.10;99.90;;;;;;5068704;28;20198;-72
2023/10/02 03:20:07;;;;;;;15.73;10.52;;;15.10;99.90;;;;;;5070619;28;20194;-73
2023/10/02 03:22:35;;;;;;;17.42;11.25;;;15.10;99.90;;;;;;5066906;28;20198;-72
2023/10/02 03:27:44;;;;;;;20.38;10.77;;;15.00;99.90;;;;;;5067580;28;20228;-72
2023/10/02 03:30:35;;;;;;;17.17;11.50;;;15.00;99.90;;;;;;5073433;28;20202;-71
2023/10/02 03:33:02;;;;;;;17.10;11.45;;;15.00;99.90;;;;;;5060634;28;20213;-73
2023/10/02 03:35:30;;;;;;;16.98;10.70;;;14.90;99.90;;;;;;5069537;28;20198;-71
2023/10/02 03:37:57;;;;;;;17.25;11.13;;;14.90;99.90;;;;;;5065203;28;20700;-73
2023/10/02 03:40:25;;;;;;;16.80;11.27;;;14.90;99.90;;;;;;5069306;28;20195;-72
2023/10/02 03:42:55;;;;;;;16.80;10.52;;;14.90;99.90;;;;;;5065057;28;20639;-72
2023/10/02 03:45:38;;;;;;;16.13;10.90;;;14.90;99.90;;;;;;5070391;28;20684;-71
2023/10/02 03:48:07;;;;;;;14.23;10.13;;;14.90;99.90;;;;;;5070596;28;20782;-71
2023/10/02 03:50:37;;;;;;;15.77;10.70;;;14.90;99.90;;;;;;5068359;28;20870;-73
2023/10/02 03:53:12;;;;;;;15.40;10.75;;;14.90;99.90;;;;;;5073411;28;20202;-72
2023/10/02 03:55:40;;;;;;;15.98;11.07;;;14.90;99.90;;;;;;5079047;28;20204;-72
2023/10/02 03:58:09;;;;;;;16.55;10.88;;;14.90;99.90;;;;;;5067079;28;20219;-72
2023/10/02 04:00:44;;;;;;;19.23;11.40;;;14.90;99.90;;;;;;5070687;28;20216;-72
2023/10/02 04:03:14;;;;;;;15.23;10.35;;;14.90;99.90;;;;;;5066297;28;20199;-73
2023/10/02 04:05:43;;;;;;;16.95;11.63;;;14.90;99.90;;;;;;5078306;28;20297;-72
2023/10/02 04:08:21;;;;;;;17.63;11.30;;;14.90;99.90;;;;;;5065641;28;20253;-72
2023/10/02 04:11:03;;;;;;;16.13;11.00;;;14.90;99.90;;;;;;5070229;28;20198;-72
2023/10/02 04:13:33;;;;;;;18.42;11.20;;;14.90;99.90;;;;;;5068208;28;20197;-76
2023/10/02 04:18:58;;;;;;;17.85;11.57;;;14.80;99.90;;;;;;5071771;28;20260;-71
2023/10/02 04:21:25;;;;;;;16.88;11.35;;;14.80;99.90;;;;;;5069246;28;20194;-71
2023/10/02 04:23:53;;;;;;;16.65;11.30;;;14.80;99.90;;;;;;5071331;28;20194;-72
2023/10/02 04:26:21;;;;;;;18.85;11.93;;;14.80;99.90;;;;;;5073170;28;20304;-72
2023/10/02 04:28:55;;;;;;;17.10;11.32;;;14.70;99.90;;;;;;5071306;28;20252;-74
2023/10/02 04:31:27;;;;;;;20.02;12.30;;;14.70;99.90;;;;;;5067702;28;20202;-72
2023/10/02 04:34:24;;;;;;;18.40;11.43;;;14.70;99.90;;;;;;5077192;28;20250;-73
2023/10/02 04:36:51;;;;;;;19.67;12.35;;;14.60;99.90;;;;;;5076114;28;20202;-72
2023/10/02 04:42:15;;;;;;;18.00;11.98;;;14.60;99.90;;;;;;5020003;28;20203;-74
2023/10/02 04:44:45;;;;;;;18.50;12.05;;;14.50;99.90;;;;;;5054615;28;20206;-72
2023/10/02 04:47:20;;;;;;;20.92;13.15;;;14.50;99.90;;;;;;5065169;28;20298;-72
2023/10/02 04:52:55;;;;;;;19.65;12.20;;;14.50;99.90;;;;;;5066696;28;20208;-72
2023/10/02 04:55:24;;;;;;;19.20;12.18;;;14.50;99.90;;;;;;5067901;28;20216;-72
2023/10/02 04:57:54;;;;;;;21.20;12.90;;;14.50;99.90;;;;;;5071520;28;20217;-71
2023/10/02 05:00:32;;;;;;;17.55;11.75;;;14.50;99.90;;;;;;5069356;28;20215;-73
2023/10/02 05:03:17;;;;;;;18.90;12.43;;;14.50;99.90;;;;;;5068691;28;20216;-72
2023/10/02 05:05:48;;;;;;;16.65;11.30;;;14.50;99.90;;;;;;5063003;28;20930;-71
2023/10/02 05:08:21;;;;;;;17.95;11.82;;;14.50;99.90;;;;;;5066090;28;20705;-72
2023/10/02 05:10:49;;;;;;;17.70;11.50;;;14.50;99.90;;;;;;5068123;28;20206;-73
2023/10/02 05:13:45;;;;;;;21.08;12.63;;;14.40;99.90;;;;;;5067994;28;20195;-72
2023/10/02 05:16:12;;;;;;;19.45;12.00;;;14.40;99.90;;;;;;5065128;28;20281;-73
2023/10/02 05:18:47;;;;;;;19.95;12.70;;;14.40;99.90;;;;;;5069205;28;20229;-73
2023/10/02 05:21:16;;;;;;;17.90;12.10;;;14.40;99.90;;;;;;5067471;28;20209;-72
2023/10/02 05:23:56;;;;;;;19.80;11.73;;;14.40;99.90;;;;;;5086881;28;20202;-72
2023/10/02 05:26:32;;;;;;;18.52;12.05;;;14.40;99.90;;;;;;5092371;28;20256;-73
2023/10/02 05:28:59;;;;;;;17.75;11.85;;;14.40;99.90;;;;;;5083054;28;20244;-73
2023/10/02 05:31:27;;;;;;;20.77;12.82;;;14.40;99.90;;;;;;5093308;28;20194;-73
2023/10/02 05:33:57;;;;;;;17.70;11.45;;;14.40;99.90;;;;;;5074963;28;20205;-72
2023/10/02 05:36:24;;;;;;;18.05;11.50;;;14.50;99.90;;;;;;5071631;28;20218;-72
2023/10/02 05:39:28;;;;;;;18.27;12.38;;;14.50;99.90;;;;;;5070694;28;20225;-72
2023/10/02 05:42:05;;;;;;;19.10;12.40;;;14.50;99.90;;;;;;5065178;28;20202;-72
2023/10/02 05:44:33;;;;;;;20.35;12.25;;;14.50;99.90;;;;;;5070938;28;20205;-70
2023/10/02 05:47:06;;;;;;;21.45;13.50;;;14.50;99.90;;;;;;5068386;28;20254;-73
2023/10/02 05:49:36;;;;;;;20.45;12.80;;;14.50;99.90;;;;;;5068740;28;20732;-73
2023/10/02 05:52:05;;;;;;;19.60;12.20;;;14.50;99.90;;;;;;5066893;28;20505;-72
2023/10/02 05:54:35;;;;;;;18.75;12.27;;;14.50;99.90;;;;;;5068517;28;20218;-72
2023/10/02 05:57:13;;;;;;;19.77;12.05;;;14.60;99.90;;;;;;5064326;28;20198;-73
2023/10/02 05:59:48;;;;;;;20.33;12.23;;;14.60;99.90;;;;;;5070932;28;20319;-72
2023/10/02 06:02:18;;;;;;;18.27;12.00;;;14.60;99.90;;;;;;5063483;28;20201;-73
2023/10/02 06:04:48;;;;;;;22.30;13.20;;;14.60;99.90;;;;;;5067522;28;20291;-73
2023/10/02 06:07:40;;;;;;;19.45;11.80;;;14.70;99.90;;;;;;5063777;28;20218;-71
2023/10/02 06:10:08;;;;;;;21.70;12.63;;;14.70;99.90;;;;;;5065588;28;20210;-73
2023/10/02 06:12:36;;;;;;;20.58;12.85;;;14.70;99.90;;;;;;5071995;28;20213;-73
2023/10/02 06:15:09;;;;;;;21.15;12.45;;;14.80;99.90;;;;;;5060932;28;20676;-73
2023/10/02 06:17:36;;;;;;;21.42;13.02;;;15.10;99.90;;;;;;5071382;28;20190;-73
2023/10/02 06:20:17;;;;;;;19.92;12.82;;;15.50;99.90;;;;;;5071078;28;20263;-73
2023/10/02 06:22:47;;;;;;;20.90;13.07;;;16.00;99.90;;;;;;5065939;28;20233;-73
2023/10/02 06:25:18;;;;;;;25.50;15.18;;;16.50;99.90;;;;;;5061622;28;20248;-72
2023/10/02 06:27:47;;;;;;;24.33;14.82;;;16.90;99.90;;;;;;5067954;28;20225;-72
2023/10/02 06:30:16;;;;;;;24.70;15.10;;;17.20;99.90;;;;;;5063097;28;20202;-73
2023/10/02 06:32:52;;;;;;;27.92;15.45;;;17.40;99.90;;;;;;5066920;28;20202;-75
2023/10/02 06:35:21;;;;;;;25.58;15.63;;;17.60;99.90;;;;;;5093184;28;20182;-73
2023/10/02 06:37:49;;;;;;;26.63;15.35;;;17.80;99.90;;;;;;5066683;28;20218;-73
2023/10/02 06:40:16;;;;;;;24.80;15.18;;;18.00;99.90;;;;;;5064077;28;20222;-73
2023/10/02 06:42:50;;;;;;;22.63;13.98;;;18.20;99.90;;;;;;5062924;28;20213;-71
2023/10/02 06:45:18;;;;;;;22.35;14.43;;;18.50;99.90;;;;;;5066542;28;20880;-72
2023/10/02 06:47:45;;;;;;;24.25;15.70;;;18.80;99.90;;;;;;5066882;28;20853;-72
2023/10/02 06:50:27;;;;;;;25.45;16.17;;;19.00;99.90;;;;;;5066780;28;20244;-72
2023/10/02 06:52:57;;;;;;;30.15;17.38;;;19.20;99.90;;;;;;5066962;28;20201;-72
2023/10/02 06:55:26;;;;;;;26.77;16.42;;;19.50;99.90;;;;;;5070101;28;20226;-73
2023/10/02 06:57:54;;;;;;;29.60;17.85;;;19.70;99.90;;;;;;5067820;28;20214;-71
2023/10/02 07:00:22;;;;;;;28.70;16.95;;;19.90;99.90;;;;;;5062565;28;21018;-72
2023/10/02 07:02:57;;;;;;;27.88;17.02;;;20.00;99.90;;;;;;5069927;28;20832;-73
2023/10/02 07:05:27;;;;;;;31.92;18.42;;;20.20;99.90;;;;;;5069193;28;20243;-72
2023/10/02 07:08:01;;;;;;;29.83;19.08;;;20.30;99.90;;;;;;5062658;28;20217;-72
2023/10/02 07:10:29;;;;;;;28.40;17.77;;;20.40;99.90;;;;;;5065589;28;20676;-73
2023/10/02 07:13:18;;;;;;;29.10;18.00;;;20.60;99.90;;;;;;5071052;28;20690;-72
2023/10/02 07:15:43;;;;;;;29.00;17.08;;;20.70;99.90;;;;;;5064770;28;20813;-72
2023/10/02 07:18:12;;;;;;;30.13;18.35;;;20.90;99.90;;;;;;5068372;28;20765;-72
2023/10/02 07:20:43;;;;;;;30.17;18.88;;;21.00;99.90;;;;;;5061935;28;20206;-72
2023/10/02 07:23:19;;;;;;;27.83;17.85;;;21.20;99.90;;;;;;5064803;28;20308;-73
2023/10/02 07:25:50;;;;;;;27.55;17.23;;;21.30;99.90;;;;;;5065014;28;20194;-72
2023/10/02 07:28:17;;;;;;;27.98;17.52;;;21.40;99.90;;;;;;5061157;28;20413;-73
2023/10/02 07:30:46;;;;;;;32.05;19.02;;;21.50;99.90;;;;;;5065975;28;20570;-73
2023/10/02 07:33:14;;;;;;;31.95;19.13;;;21.60;99.90;;;;;;5066987;28;20913;-72
2023/10/02 07:35:52;;;;;;;31.30;18.70;;;21.80;99.90;;;;;;5064458;28;20202;-73
2023/10/02 07:38:21;;;;;;;30.50;18.27;;;22.00;99.90;;;;;;5071003;28;20585;-72
2023/10/02 07:40:49;;;;;;;29.63;18.70;;;22.00;99.90;;;;;;5069430;28;20198;-72
2023/10/02 07:43:16;;;;;;;34.15;20.60;;;22.20;99.90;;;;;;5062154;28;20281;-72
2023/10/02 07:45:44;;;;;;;31.85;19.67;;;22.30;99.90;;;;;;5068203;28;20289;-72
2023/10/02 07:48:12;;;;;;;33.08;20.27;;;22.40;99.90;;;;;;5068369;28;20221;-72
2023/10/02 07:50:41;;;;;;;32.30;20.23;;;22.20;99.90;;;;;;5062308;28;20230;-71
2023/10/02 07:53:09;;;;;;;33.78;20.35;;;22.20;99.90;;;;;;5067300;28;20197;-72
2023/10/02 07:55:42;;;;;;;32.00;19.85;;;22.20;99.90;;;;;;5060879;28;20720;-73
2023/10/02 07:58:09;;;;;;;31.55;19.30;;;22.30;99.90;;;;;;5065755;28;20210;-72
2023/10/02 08:00:40;;;;;;;30.77;19.17;;;22.50;99.90;;;;;;5067061;28;20206;-74
2023/10/02 08:05:57;;;;;;;29.50;19.48;;;22.90;99.90;;;;;;5070028;28;20196;-72
2023/10/02 08:08:31;;;;;;;29.90;18.67;;;23.00;99.90;;;;;;5068971;28;20316;-73
2023/10/02 08:11:02;;;;;;;29.40;18.02;;;22.90;99.90;;;;;;5067075;28;20222;-74
2023/10/02 08:13:36;;;;;;;33.97;19.88;;;23.10;99.90;;;;;;5073267;28;20202;-72
2023/10/02 08:16:14;;;;;;;32.08;20.40;;;23.20;99.90;;;;;;5065187;28;20539;-73
2023/10/02 08:21:33;;;;;;;31.00;19.52;;;23.50;99.90;;;;;;5069470;28;20225;-72
2023/10/02 08:24:04;;;;;;;30.88;18.08;;;23.40;99.90;;;;;;5065835;28;20194;-72
2023/10/02 08:26:40;;;;;;;30.75;18.80;;;23.60;99.90;;;;;;5070477;28;20859;-72
2023/10/02 08:29:10;;;;;;;32.58;19.55;;;23.70;99.90;;;;;;5070783;28;20221;-73
2023/10/02 08:31:42;;;;;;;29.45;18.65;;;23.70;99.90;;;;;;5068741;28;20199;-75
2023/10/02 08:34:12;;;;;;;32.35;20.20;;;23.70;99.90;;;;;;5070748;28;20292;-74
2023/10/02 08:36:39;;;;;;;32.13;19.30;;;23.90;99.90;;;;;;5089140;28;20294;-74
2023/10/02 08:39:08;;;;;;;28.05;18.10;;;23.90;99.90;;;;;;5074934;28;20279;-73
2023/10/02 08:41:43;;;;;;;28.73;17.20;;;23.90;99.90;;;;;;5070727;28;20202;-72
2023/10/02 08:44:12;;;;;;;30.15;18.42;;;24.00;99.90;;;;;;5070338;28;20202;-74
2023/10/02 08:46:42;;;;;;;28.25;18.17;;;24.20;99.90;;;;;;5071353;28;20198;-73
2023/10/02 08:49:13;;;;;;;30.58;18.77;;;24.30;99.90;;;;;;5071453;28;20241;-73
2023/10/02 08:51:48;;;;;;;30.77;19.58;;;24.40;99.90;;;;;;5090089;28;20205;-73
2023/10/02 08:54:17;;;;;;;29.75;19.05;;;24.50;99.90;;;;;;5100435;28;20261;-73
2023/10/02 08:56:48;;;;;;;28.73;18.70;;;24.60;99.90;;;;;;5086541;28;20261;-73
2023/10/02 08:59:26;;;;;;;29.10;17.25;;;24.50;99.90;;;;;;5067476;28;20729;-72
2023/10/02 09:02:08;;;;;;;29.88;19.20;;;24.80;99.90;;;;;;5065661;28;20198;-74
2023/10/02 09:04:35;;;;;;;28.05;17.48;;;24.90;99.90;;;;;;5063280;28;20199;-73
2023/10/02 09:07:14;;;;;;;27.20;17.48;;;24.80;99.90;;;;;;5068786;28;20201;-73
2023/10/02 09:09:47;;;;;;;29.80;18.33;;;24.50;99.90;;;;;;5068935;28;20309;-73
2023/10/02 09:12:17;;;;;;;28.70;18.90;;;24.40;99.90;;;;;;5068549;28;20716;-71
2023/10/02 09:14:44;;;;;;;28.65;17.90;;;24.40;99.90;;;;;;5063325;28;20568;-73
2023/10/02 09:17:19;;;;;;;27.88;18.02;;;24.50;99.90;;;;;;5068550;28;20420;-74
2023/10/02 09:19:53;;;;;;;29.65;18.13;;;24.60;99.90;;;;;;5071562;28;20293;-73
2023/10/02 09:22:21;;;;;;;26.95;17.55;;;24.70;99.90;;;;;;5067563;28;20244;-72
2023/10/02 09:24:58;;;;;;;29.27;17.80;;;24.70;99.90;;;;;;5067949;28;20201;-72
2023/10/02 09:27:28;;;;;;;30.00;18.35;;;24.70;99.90;;;;;;5063620;28;20271;-72
2023/10/02 09:30:18;;;;;;;29.20;17.92;;;24.70;99.90;;;;;;5070298;28;20199;-73
2023/10/02 09:32:49;;;;;;;28.58;18.02;;;24.60;99.90;;;;;;5063930;28;20298;-73
2023/10/02 09:35:29;;;;;;;34.20;19.15;;;24.80;99.90;;;;;;5063395;28;20541;-74
2023/10/02 09:37:56;;;;;;;32.33;19.00;;;25.10;99.90;;;;;;5069185;28;21021;-73
2023/10/02 09:40:27;;;;;;;29.77;18.88;;;25.30;99.90;;;;;;5068839;28;20298;-71
2023/10/02 09:43:03;;;;;;;29.83;19.20;;;25.20;99.90;;;;;;5065488;28;20560;-72
2023/10/02 09:45:37;;;;;;;27.38;17.67;;;25.20;99.90;;;;;;5066497;28;20201;-73
2023/10/02 09:48:46;;;;;;;30.02;18.40;;;25.10;99.90;;;;;;5066844;28;20278;-73
2023/10/02 09:50:56;;;;;;;28.15;19.23;;;25.20;99.90;;;;;;5066095;28;20289;-73
2023/10/02 09:53:25;;;;;;;29.02;18.25;;;25.30;99.90;;;;;;5059508;28;20202;-73
2023/10/02 09:56:06;;;;;;;28.80;18.50;;;25.50;99.90;;;;;;5072020;28;20229;-73
2023/10/02 09:58:47;;;;;;;27.50;17.52;;;25.60;99.90;;;;;;5069785;28;20333;-74
2023/10/02 10:01:35;;;;;;;29.73;19.73;;;25.60;99.90;;;;;;5066047;28;20205;-72
2023/10/02 10:04:08;;;;;;;29.25;17.85;;;25.60;99.90;;;;;;5063571;28;20194;-73
2023/10/02 10:06:48;;;;;;;33.05;20.25;;;25.80;99.90;;;;;;5066365;28;20256;-73
2023/10/02 10:09:25;;;;;;;28.58;18.48;;;26.00;99.90;;;;;;5064070;28;20220;-73
2023/10/02 10:14:40;;;;;;;27.38;17.33;;;26.20;99.90;;;;;;5064361;28;20193;-73
2023/10/02 10:17:13;;;;;;;30.40;18.60;;;26.00;99.90;;;;;;5068169;28;20189;-72
2023/10/02 10:19:43;;;;;;;27.33;18.27;;;26.00;99.90;;;;;;5060753;28;20217;-73
2023/10/02 10:22:36;;;;;;;30.73;19.00;;;26.00;99.90;;;;;;5068740;28;20251;-73
2023/10/02 10:28:05;;;;;;;30.65;19.08;;;26.40;99.90;;;;;;5066781;28;20591;-73
2023/10/02 10:30:39;;;;;;;30.98;19.15;;;26.70;99.90;;;;;;5065536;28;20206;-73
2023/10/02 10:33:33;;;;;;;27.08;18.20;;;26.70;99.90;;;;;;5069960;28;20586;-73
2023/10/02 10:36:05;;;;;;;28.77;18.95;;;26.60;99.90;;;;;;5071984;28;20198;-75
2023/10/02 10:38:36;;;;;;;28.30;18.50;;;26.70;99.90;;;;;;5084313;28;20233;-74
2023/10/02 10:41:05;;;;;;;28.65;18.65;;;26.70;99.90;;;;;;5062686;28;20202;-75
2023/10/02 10:43:52;;;;;;;26.73;18.17;;;26.50;99.90;;;;;;5068960;28;20297;-73
2023/10/02 10:46:23;;;;;;;27.23;16.85;;;26.30;99.90;;;;;;5071042;28;20198;-72
2023/10/02 10:48:59;;;;;;;27.05;18.40;;;26.00;99.90;;;;;;5063814;28;20219;-73
2023/10/02 10:51:27;;;;;;;30.67;19.05;;;25.90;99.90;;;;;;5067569;28;20292;-73
2023/10/02 10:54:12;;;;;;;29.50;18.30;;;25.70;99.90;;;;;;5066644;28;20224;-73
2023/10/02 10:56:43;;;;;;;28.90;18.20;;;25.40;99.90;;;;;;5066637;28;20213;-73
2023/10/02 10:59:12;;;;;;;28.55;17.83;;;25.40;99.90;;;;;;5070076;28;20214;-73
2023/10/02 11:02:09;;;;;;;27.35;16.67;;;25.50;99.90;;;;;;5064805;28;20312;-73
2023/10/02 11:04:39;;;;;;;28.27;17.83;;;25.50;99.90;;;;;;5067440;28;20723;-74
2023/10/02 11:07:19;;;;;;;28.33;18.15;;;25.30;99.90;;;;;;5062539;28;20281;-73
2023/10/02 11:10:12;;;;;;;32.78;18.92;;;25.40;99.90;;;;;;5063529;28;20767;-73
2023/10/02 11:12:38;;;;;;;31.48;19.42;;;25.30;99.90;;;;;;5068441;28;20225;-73
2023/10/02 11:15:28;;;;;;;30.85;19.25;;;25.20;99.90;;;;;;5065157;28;20254;-73
2023/10/02 11:18:20;;;;;;;28.10;19.00;;;25.40;99.90;;;;;;5066163;28;20225;-73
2023/10/02 11:20:51;;;;;;;25.65;17.58;;;25.50;99.90;;;;;;5062458;28;20205;-73
2023/10/02 11:23:24;;;;;;;28.25;17.77;;;25.70;99.90;;;;;;5062868;28;20255;-74
2023/10/02 11:25:52;;;;;;;27.70;17.58;;;25.90;99.90;;;;;;5059986;28;20289;-73
2023/10/02 11:28:29;;;;;;;27.92;18.00;;;26.10;99.90;;;;;;5065812;28;20268;-72
2023/10/02 11:31:30;;;;;;;30.52;19.17;;;26.20;99.90;;;;;;5070351;28;20201;-73
2023/10/02 11:34:07;;;;;;;29.63;18.48;;;26.40;99.90;;;;;;5059044;28;20197;-75
2023/10/02 11:36:38;;;;;;;29.42;18.60;;;26.60;99.90;;;;;;5068101;28;20198;-73
2023/10/02 11:39:09;;;;;;;27.02;17.50;;;26.80;99.90;;;;;;5068675;28;20241;-73
2023/10/02 11:41:39;;;;;;;26.42;17.30;;;27.00;99.90;;;;;;5066631;28;20302;-73
2023/10/02 11:44:11;;;;;;;29.70;18.95;;;26.80;99.90;;;;;;5063487;28;20260;-73
2023/10/02 11:46:38;;;;;;;25.75;17.73;;;26.70;99.90;;;;;;5066222;28;20578;-74
2023/10/02 11:49:08;;;;;;;26.30;17.55;;;26.60;99.90;;;;;;5066904;28;20763;-73
2023/10/02 11:51:35;;;;;;;29.27;18.65;;;26.70;99.90;;;;;;5063069;28;20206;-73
2023/10/02 11:54:05;;;;;;;26.30;17.25;;;26.70;99.90;;;;;;5066556;28;20206;-73
2023/10/02 11:56:34;;;;;;;29.67;18.88;;;26.60;99.90;;;;;;5071589;28;20213;-73
2023/10/02 11:59:02;;;;;;;26.63;16.75;;;26.70;99.90;;;;;;5074089;28;20625;-73
2023/10/02 12:01:30;;;;;;;28.25;17.73;;;26.70;99.90;;;;;;5067673;28;20206;-72
2023/10/02 12:03:57;;;;;;;28.00;17.73;;;26.50;99.90;;;;;;5069464;28;20215;-73
2023/10/02 12:06:28;;;;;;;26.50;17.48;;;26.60;99.90;;;;;;5075510;28;20744;-73
2023/10/02 12:08:56;;;;;;;26.45;16.95;;;26.70;99.90;;;;;;5067995;28;20228;-74
2023/10/02 12:11:24;;;;;;;26.85;16.92;;;26.70;99.90;;;;;;5069145;28;20201;-72
2023/10/02 12:13:51;;;;;;;28.10;18.08;;;26.80;99.90;;;;;;5061721;28;20201;-74
2023/10/02 12:16:21;;;;;;;26.50;17.08;;;27.00;99.90;;;;;;5066972;28;20259;-72
2023/10/02 12:18:49;;;;;;;29.92;18.45;;;27.00;99.90;;;;;;5066412;28;20241;-72
2023/10/02 12:21:17;;;;;;;27.55;16.90;;;27.20;99.90;;;;;;5063316;28;20198;-74
2023/10/02 12:23:46;;;;;;;27.25;18.75;;;27.30;99.90;;;;;;5068245;28;20497;-73
2023/10/02 12:26:14;;;;;;;30.50;19.58;;;27.10;99.90;;;;;;5066858;28;20225;-73
2023/10/02 12:28:42;;;;;;;26.67;18.05;;;26.70;99.90;;;;;;5068297;28;20221;-72
2023/10/02 12:31:10;;;;;;;26.13;17.88;;;26.60;99.90;;;;;;5065829;28;20194;-72
2023/10/02 12:33:38;;;;;;;28.33;18.58;;;26.70;99.90;;;;;;5069818;28;20228;-73
2023/10/02 12:36:12;;;;;;;28.35;17.92;;;26.80;99.90;;;;;;5076005;28;20718;-73
2023/10/02 12:38:40;;;;;;;26.35;17.98;;;26.90;99.90;;;;;;5090352;28;20248;-74
2023/10/02 12:41:16;;;;;;;27.65;17.90;;;26.90;99.90;;;;;;5076067;28;20198;-73
2023/10/02 12:43:45;;;;;;;26.60;17.38;;;26.80;99.90;;;;;;5073327;28;20206;-72
2023/10/02 12:46:14;;;;;;;25.48;16.90;;;26.80;99.90;;;;;;5069656;28;20898;-74
2023/10/02 12:48:42;;;;;;;26.45;17.40;;;26.80;99.90;;;;;;5061738;28;20365;-73
2023/10/02 12:51:09;;;;;;;29.00;18.02;;;26.90;99.90;;;;;;5065023;28;20310;-74
2023/10/02 12:53:37;;;;;;;26.65;17.85;;;27.00;99.90;;;;;;5066160;28;20743;-73
2023/10/02 12:56:05;;;;;;;25.70;17.70;;;27.00;99.90;;;;;;5064518;28;20198;-74
2023/10/02 12:58:34;;;;;;;27.75;17.95;;;27.10;99.90;;;;;;5067515;28;20321;-73
2023/10/02 13:01:01;;;;;;;27.17;18.55;;;26.90;99.90;;;;;;5064593;28;20203;-74
2023/10/02 13:03:30;;;;;;;24.27;16.45;;;27.00;99.90;;;;;;5063867;28;20264;-73
2023/10/02 13:05:58;;;;;;;27.00;17.98;;;27.00;99.90;;;;;;5064471;28;21117;-72
2023/10/02 13:08:26;;;;;;;24.88;16.98;;;26.70;99.90;;;;;;5070580;28;20309;-73
2023/10/02 13:10:55;;;;;;;25.27;16.60;;;26.40;99.90;;;;;;5067819;28;20240;-72
2023/10/02 13:13:22;;;;;;;26.20;16.83;;;26.40;99.90;;;;;;5067553;28;20201;-73
2023/10/02 13:15:51;;;;;;;25.30;16.60;;;26.30;99.90;;;;;;5066464;28;20265;-72
2023/10/02 13:18:18;;;;;;;24.13;16.08;;;26.10;99.90;;;;;;5066579;28;20226;-73
2023/10/02 13:20:47;;;;;;;27.58;17.17;;;26.20;99.90;;;;;;5067354;28;20259;-73